Time;durP1;ratioP1;P1;durP2;ratioP2;P2;SDS_P1;SDS_P2;PMS_P1;PMS_P2;Temp;Humidity;BMP_temperature;BMP_pressure;BME280_temperature;BME280_humidity;BME280_pressure;Samples;Min_cycle;Max_cycle;Signal;HPM_P1;HPM_P2
2021/07/09 00:01:25;;;;;;;3.93;3.13;;;17.80;99.90;;;;;;4955972;29;20472;-62
2021/07/09 00:03:50;;;;;;;3.03;2.80;;;17.70;99.90;;;;;;4956101;28;20409;-62
2021/07/09 00:06:20;;;;;;;3.93;3.63;;;17.70;99.90;;;;;;4956175;28;20293;-62
2021/07/09 00:08:46;;;;;;;3.20;3.00;;;17.70;99.90;;;;;;4956004;29;20402;-62
2021/07/09 00:11:12;;;;;;;3.80;3.50;;;18.00;99.90;;;;;;4954658;29;20424;-63
2021/07/09 00:13:38;;;;;;;3.60;3.30;;;18.00;99.90;;;;;;4936863;29;20221;-62
2021/07/09 00:16:05;;;;;;;3.43;3.13;;;18.00;99.90;;;;;;4936569;29;20449;-62
2021/07/09 00:18:30;;;;;;;4.27;3.80;;;18.10;99.90;;;;;;4941374;28;20213;-62
2021/07/09 00:20:56;;;;;;;3.73;3.30;;;18.10;99.90;;;;;;4955979;28;20457;-62
2021/07/09 00:23:22;;;;;;;3.50;3.30;;;18.10;99.90;;;;;;4956098;28;20180;-62
2021/07/09 00:25:48;;;;;;;3.73;3.43;;;18.00;99.90;;;;;;4954420;28;20185;-62
2021/07/09 00:28:13;;;;;;;3.67;3.27;;;18.10;99.90;;;;;;4955581;28;20209;-62
2021/07/09 00:30:39;;;;;;;4.40;3.43;;;18.00;99.90;;;;;;4955620;28;20177;-62
2021/07/09 00:33:05;;;;;;;3.53;3.20;;;17.90;99.90;;;;;;4954255;28;20659;-62
2021/07/09 00:35:30;;;;;;;3.60;2.90;;;17.90;99.90;;;;;;4955819;28;20270;-62
2021/07/09 00:37:56;;;;;;;4.40;3.70;;;17.90;99.90;;;;;;4955504;28;20201;-62
2021/07/09 00:40:22;;;;;;;3.67;3.37;;;18.00;99.90;;;;;;4955648;29;20174;-62
2021/07/09 00:42:47;;;;;;;4.17;3.60;;;18.00;99.90;;;;;;4955450;29;20181;-62
2021/07/09 00:45:14;;;;;;;3.30;3.00;;;18.10;99.90;;;;;;4954726;28;20182;-62
2021/07/09 00:47:43;;;;;;;4.53;3.43;;;18.20;99.90;;;;;;4955391;28;20257;-62
2021/07/09 00:50:11;;;;;;;4.23;3.80;;;18.20;99.90;;;;;;4955564;28;20402;-62
2021/07/09 00:52:37;;;;;;;6.10;3.67;;;18.10;99.90;;;;;;4955121;28;20465;-62
2021/07/09 00:55:04;;;;;;;4.57;4.17;;;17.90;99.90;;;;;;4954244;28;20441;-62
2021/07/09 00:57:29;;;;;;;3.97;3.57;;;17.90;99.90;;;;;;4955154;28;20276;-62
2021/07/09 00:59:55;;;;;;;4.70;4.17;;;18.00;99.90;;;;;;4955095;29;20453;-62
2021/07/09 01:02:23;;;;;;;5.30;4.17;;;17.90;99.90;;;;;;4954097;28;20300;-62
2021/07/09 01:04:49;;;;;;;8.83;3.90;;;17.90;99.90;;;;;;4955362;28;20665;-62
2021/07/09 01:07:14;;;;;;;5.37;4.87;;;17.70;99.90;;;;;;4955458;28;20429;-62
2021/07/09 01:09:40;;;;;;;4.80;4.40;;;17.70;99.90;;;;;;4954231;28;20406;-62
2021/07/09 01:12:06;;;;;;;5.57;4.67;;;17.70;99.90;;;;;;4955291;29;20211;-62
2021/07/09 01:14:32;;;;;;;4.67;4.20;;;17.60;99.90;;;;;;4955322;28;20189;-62
2021/07/09 01:16:57;;;;;;;6.23;5.63;;;17.60;99.90;;;;;;4976841;23;20527;-66
2021/07/09 01:19:26;;;;;;;6.80;4.60;;;17.60;99.90;;;;;;4953876;29;20572;-65
2021/07/09 01:21:51;;;;;;;5.27;4.77;;;17.70;99.90;;;;;;4955206;28;20201;-65
2021/07/09 01:24:17;;;;;;;7.83;4.20;;;17.70;99.90;;;;;;4953597;29;20925;-65
2021/07/09 01:26:44;;;;;;;4.80;3.97;;;17.70;99.90;;;;;;4955204;28;20166;-65
2021/07/09 01:29:11;;;;;;;5.10;4.63;;;17.70;99.90;;;;;;4945587;28;20237;-65
2021/07/09 01:31:37;;;;;;;4.20;3.63;;;17.60;99.90;;;;;;4936393;29;20797;-65
2021/07/09 01:34:04;;;;;;;4.10;3.70;;;17.60;99.90;;;;;;4936302;29;20414;-65
2021/07/09 01:36:30;;;;;;;6.43;4.27;;;17.50;99.90;;;;;;4948417;29;20416;-65
2021/07/09 01:38:56;;;;;;;5.30;4.60;;;17.50;99.90;;;;;;4955093;28;20440;-66
2021/07/09 01:41:22;;;;;;;8.20;5.13;;;17.50;99.90;;;;;;4955435;28;20547;-65
2021/07/09 01:43:48;;;;;;;4.17;3.80;;;17.60;99.90;;;;;;4954724;28;20646;-65
2021/07/09 01:46:14;;;;;;;5.13;4.67;;;17.60;99.90;;;;;;4956307;29;20170;-65
2021/07/09 01:48:40;;;;;;;4.77;4.37;;;17.70;99.90;;;;;;4956229;28;20430;-65
2021/07/09 01:51:06;;;;;;;4.23;3.93;;;17.60;99.90;;;;;;4956028;29;20431;-65
2021/07/09 01:53:32;;;;;;;4.53;4.10;;;17.60;99.90;;;;;;4955442;29;20672;-65
2021/07/09 01:55:57;;;;;;;5.20;4.60;;;17.50;99.90;;;;;;4958976;29;20185;-65
2021/07/09 01:58:24;;;;;;;4.33;3.93;;;17.40;99.90;;;;;;4959513;28;20429;-65
2021/07/09 02:00:50;;;;;;;8.40;3.90;;;17.20;99.90;;;;;;4959989;29;20240;-65
2021/07/09 02:03:16;;;;;;;4.77;4.37;;;17.20;99.90;;;;;;4951236;29;20499;-64
2021/07/09 02:05:41;;;;;;;4.90;3.43;;;17.20;99.90;;;;;;4935672;29;20413;-64
2021/07/09 02:08:07;;;;;;;4.07;3.73;;;17.10;99.90;;;;;;4935881;29;20923;-64
2021/07/09 02:10:36;;;;;;;4.60;4.20;;;17.10;99.90;;;;;;4935578;29;20177;-66
2021/07/09 02:13:03;;;;;;;3.80;3.50;;;17.20;99.90;;;;;;4954676;29;20174;-65
2021/07/09 02:15:31;;;;;;;3.43;3.13;;;17.20;99.90;;;;;;4954738;28;20417;-65
2021/07/09 02:17:57;;;;;;;4.53;4.13;;;17.20;99.90;;;;;;4954747;28;20956;-65
2021/07/09 02:20:24;;;;;;;4.53;4.13;;;17.30;99.90;;;;;;4954768;29;20424;-65
2021/07/09 02:22:53;;;;;;;4.90;3.97;;;17.20;99.90;;;;;;4958260;28;20178;-65
2021/07/09 02:25:18;;;;;;;4.87;3.60;;;17.20;99.90;;;;;;4957918;28;20413;-65
2021/07/09 02:27:47;;;;;;;4.00;3.70;;;17.30;99.90;;;;;;4958065;28;20483;-64
2021/07/09 02:30:18;;;;;;;4.20;3.90;;;17.30;99.90;;;;;;4958825;28;20177;-65
2021/07/09 02:32:45;;;;;;;4.17;3.80;;;17.30;99.90;;;;;;4956928;29;20495;-65
2021/07/09 02:35:16;;;;;;;4.80;4.50;;;17.40;99.90;;;;;;4957670;28;20457;-65
2021/07/09 02:37:42;;;;;;;3.77;3.47;;;17.70;99.90;;;;;;4957332;28;20487;-68
2021/07/09 02:40:12;;;;;;;4.07;3.67;;;17.60;99.90;;;;;;4957384;29;20437;-65
2021/07/09 02:42:38;;;;;;;3.63;3.37;;;17.50;99.90;;;;;;4958066;29;20461;-65
2021/07/09 02:45:05;;;;;;;5.13;3.20;;;17.70;99.90;;;;;;4956564;29;20508;-65
2021/07/09 02:47:31;;;;;;;5.90;3.23;;;17.90;99.90;;;;;;4957930;28;20918;-65
2021/07/09 02:49:56;;;;;;;4.53;4.03;;;18.00;99.90;;;;;;4957040;29;20417;-65
2021/07/09 02:52:22;;;;;;;3.17;2.87;;;18.00;99.90;;;;;;4957709;29;20228;-65
2021/07/09 02:54:47;;;;;;;3.90;3.50;;;17.80;99.90;;;;;;4957554;29;20182;-65
2021/07/09 02:57:13;;;;;;;5.20;4.20;;;17.60;99.90;;;;;;4957734;28;20592;-65
2021/07/09 02:59:39;;;;;;;5.97;3.60;;;17.50;99.90;;;;;;4957812;29;20212;-65
2021/07/09 03:02:04;;;;;;;4.23;3.90;;;17.60;99.90;;;;;;4957423;29;20194;-64
2021/07/09 03:04:30;;;;;;;5.87;5.27;;;17.60;99.90;;;;;;4957210;29;20200;-65
2021/07/09 03:06:55;;;;;;;3.67;3.37;;;17.40;99.90;;;;;;4957646;28;20280;-65
2021/07/09 03:09:21;;;;;;;4.30;3.90;;;17.60;99.90;;;;;;4957193;29;20166;-65
2021/07/09 03:11:46;;;;;;;4.40;3.93;;;17.50;99.90;;;;;;4957502;29;20182;-65
2021/07/09 03:14:12;;;;;;;5.13;3.50;;;17.30;99.90;;;;;;4957874;28;20550;-65
2021/07/09 03:16:38;;;;;;;3.53;3.30;;;17.30;99.90;;;;;;4957079;28;20215;-65
2021/07/09 03:19:06;;;;;;;3.33;3.13;;;17.30;99.90;;;;;;4956956;28;20209;-65
2021/07/09 03:21:35;;;;;;;5.17;4.20;;;17.30;99.90;;;;;;4957079;29;20209;-65
2021/07/09 03:24:02;;;;;;;4.50;4.10;;;17.20;99.90;;;;;;4956964;29;20493;-65
2021/07/09 03:26:28;;;;;;;4.70;4.30;;;17.10;99.90;;;;;;4955796;29;20425;-65
2021/07/09 03:28:57;;;;;;;6.20;5.60;;;17.30;99.90;;;;;;4957030;28;20440;-65
2021/07/09 03:31:24;;;;;;;5.17;3.70;;;17.30;99.90;;;;;;4955855;29;20185;-65
2021/07/09 03:33:50;;;;;;;5.10;4.70;;;17.20;99.90;;;;;;4956412;28;20976;-65
2021/07/09 03:36:15;;;;;;;6.30;5.47;;;17.10;99.90;;;;;;4956831;29;20450;-65
2021/07/09 03:38:41;;;;;;;5.70;4.50;;;17.10;99.90;;;;;;4956660;28;20233;-65
2021/07/09 03:41:07;;;;;;;5.03;4.60;;;17.10;99.90;;;;;;4956745;29;20208;-65
2021/07/09 03:43:32;;;;;;;6.40;4.80;;;17.30;99.90;;;;;;4956817;29;20551;-64
2021/07/09 03:45:58;;;;;;;7.20;4.80;;;17.20;99.90;;;;;;4956852;29;20245;-65
2021/07/09 03:48:24;;;;;;;4.40;4.00;;;17.20;99.90;;;;;;4956587;28;20211;-65
2021/07/09 03:50:49;;;;;;;5.77;4.40;;;17.10;99.90;;;;;;4956563;29;20177;-65
2021/07/09 03:53:15;;;;;;;6.10;5.50;;;17.10;99.90;;;;;;4956427;29;20206;-65
2021/07/09 03:55:41;;;;;;;5.20;4.80;;;17.10;99.90;;;;;;4956738;29;20345;-65
2021/07/09 03:58:06;;;;;;;4.33;4.03;;;17.20;99.90;;;;;;4956404;28;20201;-65
2021/07/09 04:00:32;;;;;;;4.37;3.93;;;17.20;99.90;;;;;;4956350;29;20707;-64
2021/07/09 04:02:58;;;;;;;5.27;4.37;;;17.20;99.90;;;;;;4956648;29;20179;-65
2021/07/09 04:05:23;;;;;;;6.90;4.10;;;17.10;99.90;;;;;;4955850;29;20185;-65
2021/07/09 04:07:49;;;;;;;4.67;4.27;;;17.10;99.90;;;;;;4956145;28;20200;-64
2021/07/09 04:10:16;;;;;;;4.50;4.10;;;17.10;99.90;;;;;;4953777;29;20177;-66
2021/07/09 04:12:42;;;;;;;6.40;5.30;;;17.00;99.90;;;;;;4956152;28;20182;-65
2021/07/09 04:15:08;;;;;;;5.83;4.10;;;17.00;99.90;;;;;;4956597;28;20409;-64
2021/07/09 04:17:34;;;;;;;6.13;5.47;;;17.10;99.90;;;;;;4955711;28;20308;-65
2021/07/09 04:20:00;;;;;;;7.87;5.30;;;17.10;99.90;;;;;;4956103;28;20504;-65
2021/07/09 04:22:25;;;;;;;4.90;4.30;;;17.00;99.90;;;;;;4956020;29;20666;-65
2021/07/09 04:24:51;;;;;;;6.07;4.70;;;17.20;99.90;;;;;;4955770;29;20211;-65
2021/07/09 04:27:17;;;;;;;4.97;4.47;;;17.20;99.90;;;;;;4955826;28;20200;-65
2021/07/09 04:29:42;;;;;;;5.47;4.50;;;17.20;99.90;;;;;;4955763;29;20178;-65
2021/07/09 04:32:08;;;;;;;9.87;5.33;;;17.10;99.90;;;;;;4955435;28;20208;-65
2021/07/09 04:34:33;;;;;;;4.00;3.70;;;17.10;99.90;;;;;;4955722;28;20204;-65
2021/07/09 04:36:59;;;;;;;5.43;4.33;;;17.10;99.90;;;;;;4955780;28;20189;-65
2021/07/09 04:39:25;;;;;;;5.10;4.70;;;17.00;99.90;;;;;;4955800;28;20650;-64
2021/07/09 04:41:50;;;;;;;6.13;4.60;;;17.00;99.90;;;;;;4955956;28;20206;-64
2021/07/09 04:44:16;;;;;;;7.73;4.33;;;16.90;99.90;;;;;;4955403;28;20666;-65
2021/07/09 04:46:42;;;;;;;4.10;3.73;;;17.00;99.90;;;;;;4955849;28;20247;-65
2021/07/09 04:49:08;;;;;;;3.90;3.43;;;16.90;99.90;;;;;;4955358;28;20619;-65
2021/07/09 04:51:34;;;;;;;4.40;4.00;;;16.80;99.90;;;;;;4955738;29;20268;-65
2021/07/09 04:54:00;;;;;;;4.07;3.70;;;17.00;99.90;;;;;;4955499;29;20426;-64
2021/07/09 04:56:25;;;;;;;4.07;3.67;;;16.90;99.90;;;;;;4956000;29;20176;-64
2021/07/09 04:58:51;;;;;;;4.97;4.10;;;17.00;99.90;;;;;;4955362;28;20271;-65
2021/07/09 05:01:16;;;;;;;5.00;3.77;;;17.00;99.90;;;;;;4955079;29;20217;-64
2021/07/09 05:03:42;;;;;;;4.77;4.33;;;17.10;99.90;;;;;;4955507;29;20174;-65
2021/07/09 05:06:08;;;;;;;4.90;4.40;;;17.10;99.90;;;;;;4955557;29;20192;-65
2021/07/09 05:08:33;;;;;;;4.80;4.40;;;17.10;99.90;;;;;;4953918;28;20224;-64
2021/07/09 05:10:59;;;;;;;4.73;4.33;;;17.00;99.90;;;;;;4955502;29;20188;-65
2021/07/09 05:13:24;;;;;;;4.47;3.80;;;17.00;99.90;;;;;;4955670;29;20176;-65
2021/07/09 05:15:50;;;;;;;6.17;4.00;;;17.10;99.90;;;;;;4955334;29;20239;-65
2021/07/09 05:18:15;;;;;;;4.37;3.97;;;17.30;99.90;;;;;;4955348;29;20259;-64
2021/07/09 05:20:41;;;;;;;4.10;3.70;;;17.20;99.90;;;;;;4955429;29;20709;-64
2021/07/09 05:23:07;;;;;;;4.93;4.53;;;17.30;99.90;;;;;;4956541;29;20182;-63
2021/07/09 05:25:32;;;;;;;4.03;3.73;;;17.30;99.90;;;;;;4955937;29;20183;-64
2021/07/09 05:27:58;;;;;;;4.60;3.30;;;17.30;99.90;;;;;;4955238;28;20192;-64
2021/07/09 05:30:23;;;;;;;4.40;4.00;;;17.20;99.90;;;;;;4955202;29;20172;-63
2021/07/09 05:32:49;;;;;;;4.73;3.80;;;17.10;99.90;;;;;;4954856;29;20623;-64
2021/07/09 05:35:15;;;;;;;5.53;4.90;;;17.00;99.90;;;;;;4954986;29;20181;-64
2021/07/09 05:37:41;;;;;;;3.90;3.60;;;17.00;99.90;;;;;;4955132;28;20197;-64
2021/07/09 05:40:07;;;;;;;4.30;4.00;;;16.90;99.90;;;;;;4954945;29;20642;-63
2021/07/09 05:42:33;;;;;;;4.83;4.40;;;16.80;99.90;;;;;;4955153;29;20887;-65
2021/07/09 05:44:59;;;;;;;4.60;4.20;;;16.80;99.90;;;;;;4954788;29;20458;-65
2021/07/09 05:47:29;;;;;;;4.40;3.93;;;16.80;99.90;;;;;;4953862;28;20462;-65
2021/07/09 05:49:54;;;;;;;4.77;4.47;;;16.80;99.90;;;;;;4954534;29;20184;-65
2021/07/09 05:52:20;;;;;;;7.13;5.70;;;16.80;99.90;;;;;;4954691;29;20471;-64
2021/07/09 05:54:45;;;;;;;5.03;4.63;;;16.90;99.90;;;;;;4954918;29;20203;-64
2021/07/09 05:57:11;;;;;;;5.00;4.27;;;16.90;99.90;;;;;;4957565;28;20625;-64
2021/07/09 05:59:38;;;;;;;5.07;4.57;;;17.00;99.90;;;;;;4958735;29;20223;-64
2021/07/09 06:02:04;;;;;;;5.23;4.57;;;17.10;99.90;;;;;;4958065;29;20204;-64
2021/07/09 06:04:30;;;;;;;4.97;4.57;;;17.10;99.90;;;;;;4958495;28;20415;-64
2021/07/09 06:06:55;;;;;;;4.93;4.53;;;17.20;99.90;;;;;;4958570;28;20426;-64
2021/07/09 06:09:21;;;;;;;4.80;4.40;;;17.20;99.90;;;;;;4958459;29;20169;-64
2021/07/09 06:11:47;;;;;;;5.70;5.20;;;17.20;99.90;;;;;;4958543;29;20547;-64
2021/07/09 06:14:12;;;;;;;4.87;4.47;;;17.10;99.90;;;;;;4958368;29;20307;-64
2021/07/09 06:16:38;;;;;;;5.43;4.90;;;17.20;99.90;;;;;;4957900;28;20231;-65
2021/07/09 06:19:04;;;;;;;5.00;4.60;;;17.20;99.90;;;;;;4957841;29;20264;-64
2021/07/09 06:21:29;;;;;;;5.03;4.50;;;17.30;99.90;;;;;;4958152;29;20204;-64
2021/07/09 06:23:55;;;;;;;5.80;4.50;;;17.30;99.90;;;;;;4958094;29;20251;-64
2021/07/09 06:26:22;;;;;;;4.57;4.17;;;17.50;99.90;;;;;;4958654;29;20174;-64
2021/07/09 06:28:47;;;;;;;4.80;4.40;;;17.60;99.90;;;;;;4958290;28;20202;-64
2021/07/09 06:31:13;;;;;;;5.40;4.73;;;17.50;99.90;;;;;;4956326;29;20518;-65
2021/07/09 06:33:39;;;;;;;5.47;4.77;;;17.50;99.90;;;;;;4956944;29;20839;-63
2021/07/09 06:36:05;;;;;;;6.00;5.37;;;17.60;99.90;;;;;;4958136;29;20417;-64
2021/07/09 06:38:30;;;;;;;6.30;5.70;;;17.70;99.90;;;;;;4957912;28;20631;-65
2021/07/09 06:40:56;;;;;;;5.10;4.60;;;17.70;99.90;;;;;;4958097;29;20209;-65
2021/07/09 06:43:22;;;;;;;5.50;5.00;;;17.60;99.90;;;;;;4958105;29;20166;-64
2021/07/09 06:45:47;;;;;;;6.17;4.90;;;17.60;99.90;;;;;;4958307;29;20460;-65
2021/07/09 06:48:13;;;;;;;6.90;5.20;;;17.80;99.90;;;;;;4957631;28;20186;-65
2021/07/09 06:50:39;;;;;;;8.83;4.70;;;18.00;99.90;;;;;;4956214;29;20178;-65
2021/07/09 06:53:05;;;;;;;6.13;5.53;;;17.80;99.90;;;;;;4957056;29;20795;-64
2021/07/09 06:55:31;;;;;;;7.07;5.93;;;17.70;99.90;;;;;;4957348;29;20421;-63
2021/07/09 06:57:57;;;;;;;7.57;5.53;;;17.80;99.90;;;;;;4957701;28;20202;-64
2021/07/09 07:00:23;;;;;;;5.50;4.93;;;17.90;99.90;;;;;;4957351;29;20402;-64
2021/07/09 07:02:49;;;;;;;5.97;5.40;;;18.10;99.90;;;;;;4957582;29;20213;-64
2021/07/09 07:05:16;;;;;;;5.47;4.97;;;18.00;99.90;;;;;;4956675;29;20511;-64
2021/07/09 07:07:41;;;;;;;4.93;4.37;;;18.10;99.90;;;;;;4956448;28;20570;-65
2021/07/09 07:10:09;;;;;;;5.17;4.67;;;18.20;99.90;;;;;;4957106;29;20413;-65
2021/07/09 07:12:35;;;;;;;4.93;4.10;;;18.40;99.90;;;;;;4957448;29;20170;-65
2021/07/09 07:15:02;;;;;;;4.17;3.77;;;18.60;99.90;;;;;;4957642;29;20855;-65
2021/07/09 07:17:27;;;;;;;7.80;5.23;;;18.90;99.90;;;;;;4971684;23;20477;-64
2021/07/09 07:19:53;;;;;;;6.10;5.50;;;18.80;99.90;;;;;;4956814;29;20453;-62
2021/07/09 07:22:19;;;;;;;5.83;5.23;;;18.90;99.90;;;;;;4956788;29;20241;-62
2021/07/09 07:24:48;;;;;;;5.17;4.67;;;19.00;99.90;;;;;;4956794;29;20174;-62
2021/07/09 07:27:14;;;;;;;5.57;5.07;;;19.00;99.90;;;;;;4956881;28;20565;-61
2021/07/09 07:29:40;;;;;;;5.60;4.07;;;19.10;99.90;;;;;;4956880;29;20783;-61
2021/07/09 07:32:06;;;;;;;5.70;5.20;;;19.20;99.90;;;;;;4956607;29;20402;-62
2021/07/09 07:34:32;;;;;;;6.47;5.87;;;19.30;99.90;;;;;;4956427;29;20305;-62
2021/07/09 07:36:58;;;;;;;6.00;5.40;;;19.50;99.90;;;;;;4956589;29;20505;-62
2021/07/09 07:39:23;;;;;;;5.60;5.13;;;19.50;99.90;;;;;;4956094;28;20194;-62
2021/07/09 07:41:49;;;;;;;5.27;4.87;;;19.60;99.90;;;;;;4955622;29;20441;-62
2021/07/09 07:44:15;;;;;;;5.17;4.30;;;19.70;99.90;;;;;;4956002;29;20197;-62
2021/07/09 07:46:40;;;;;;;6.37;5.77;;;19.60;99.90;;;;;;4956154;29;20182;-64
2021/07/09 07:49:06;;;;;;;4.83;4.13;;;19.80;99.90;;;;;;4956343;28;20205;-62
2021/07/09 07:51:31;;;;;;;4.30;3.90;;;19.50;99.90;;;;;;4956396;29;20180;-62
2021/07/09 07:53:57;;;;;;;5.00;4.57;;;19.60;99.90;;;;;;4955281;29;20178;-62
2021/07/09 07:56:23;;;;;;;4.90;4.50;;;19.80;99.90;;;;;;4936791;29;20675;-62
2021/07/09 07:58:51;;;;;;;4.80;4.07;;;19.80;99.90;;;;;;4937056;29;20202;-61
2021/07/09 08:01:18;;;;;;;5.67;4.20;;;19.80;99.90;;;;;;4928491;29;20213;-63
2021/07/09 08:03:44;;;;;;;4.63;4.20;;;19.80;99.90;;;;;;4933059;29;20489;-62
2021/07/09 08:06:09;;;;;;;6.17;4.80;;;19.80;99.90;;;;;;4935531;29;20501;-62
2021/07/09 08:08:38;;;;;;;5.30;4.90;;;20.00;99.90;;;;;;4936506;29;20534;-61
2021/07/09 08:11:04;;;;;;;4.63;4.23;;;20.20;99.90;;;;;;4936981;29;20262;-62
2021/07/09 08:13:30;;;;;;;5.80;5.20;;;20.30;99.90;;;;;;4936638;29;20418;-62
2021/07/09 08:15:56;;;;;;;4.40;4.00;;;20.70;99.90;;;;;;4936832;29;20785;-64
2021/07/09 08:18:22;;;;;;;4.73;4.33;;;20.80;99.90;;;;;;4936432;29;20461;-62
2021/07/09 08:20:48;;;;;;;4.47;4.13;;;21.00;99.90;;;;;;4936800;29;20450;-61
2021/07/09 08:23:13;;;;;;;6.93;4.87;;;21.40;99.90;;;;;;4936640;29;20414;-62
2021/07/09 08:25:39;;;;;;;4.40;4.03;;;21.10;99.90;;;;;;4941008;29;20162;-62
2021/07/09 08:28:05;;;;;;;4.27;3.87;;;21.10;99.90;;;;;;4955846;28;20679;-62
2021/07/09 08:30:31;;;;;;;5.40;3.90;;;20.90;99.90;;;;;;4955490;29;20531;-62
2021/07/09 08:32:56;;;;;;;4.10;3.70;;;21.00;99.90;;;;;;4955265;29;20170;-61
2021/07/09 08:35:23;;;;;;;6.60;4.47;;;21.00;99.90;;;;;;4955402;29;20670;-61
2021/07/09 08:37:48;;;;;;;4.87;4.20;;;21.10;99.90;;;;;;4955500;28;20200;-62
2021/07/09 08:40:14;;;;;;;5.23;4.73;;;21.50;99.90;;;;;;4955764;29;20492;-62
2021/07/09 08:42:40;;;;;;;3.90;3.60;;;21.40;99.90;;;;;;4955062;29;20252;-63
2021/07/09 08:45:06;;;;;;;4.73;4.20;;;21.10;99.90;;;;;;4955008;29;20410;-61
2021/07/09 08:47:34;;;;;;;5.60;4.97;;;21.10;99.90;;;;;;4955182;28;20190;-62
2021/07/09 08:50:03;;;;;;;4.90;4.50;;;20.90;99.90;;;;;;4955666;29;20453;-61
2021/07/09 08:52:29;;;;;;;6.00;4.13;;;21.00;99.90;;;;;;4955215;28;20937;-62
2021/07/09 08:54:54;;;;;;;4.83;4.37;;;21.30;99.90;;;;;;4955225;29;20418;-62
2021/07/09 08:57:20;;;;;;;5.53;5.03;;;21.60;99.90;;;;;;4953539;28;20181;-61
2021/07/09 08:59:45;;;;;;;4.47;4.13;;;21.50;99.90;;;;;;4955052;29;20170;-62
2021/07/09 09:02:11;;;;;;;5.10;4.47;;;21.50;99.90;;;;;;4954709;29;20626;-61
2021/07/09 09:04:38;;;;;;;5.43;4.47;;;21.50;99.90;;;;;;4955165;29;20525;-62
2021/07/09 09:07:06;;;;;;;4.17;3.53;;;21.50;99.90;;;;;;4953181;28;20174;-62
2021/07/09 09:09:34;;;;;;;5.17;4.77;;;21.60;99.90;;;;;;4955129;29;20406;-62
2021/07/09 09:12:00;;;;;;;7.53;5.37;;;21.80;99.90;;;;;;4955101;29;20926;-62
2021/07/09 09:14:26;;;;;;;5.90;5.10;;;21.70;99.90;;;;;;4955534;29;20409;-60
2021/07/09 09:16:52;;;;;;;5.50;5.03;;;21.90;99.90;;;;;;4954895;29;20414;-62
2021/07/09 09:19:22;;;;;;;4.87;4.47;;;22.20;99.90;;;;;;4954913;28;20264;-62
2021/07/09 09:22:10;;;;;;;4.77;4.37;;;22.30;99.90;;;;;;4955259;29;20209;-61
2021/07/09 09:24:36;;;;;;;6.90;4.77;;;22.50;99.90;;;;;;4955547;29;20386;-62
2021/07/09 09:27:01;;;;;;;8.23;4.60;;;22.50;99.90;;;;;;4954855;29;20760;-62
2021/07/09 09:29:27;;;;;;;4.73;4.33;;;22.20;99.90;;;;;;4953518;28;20253;-62
2021/07/09 09:32:02;;;;;;;5.20;4.70;;;22.10;99.90;;;;;;4957233;28;20185;-62
2021/07/09 09:34:39;;;;;;;7.17;4.50;;;22.00;99.90;;;;;;4958809;29;20160;-62
2021/07/09 09:37:05;;;;;;;4.67;4.23;;;22.50;99.90;;;;;;4959402;28;20887;-62
2021/07/09 09:39:32;;;;;;;6.07;4.80;;;22.50;99.90;;;;;;4959328;29;20436;-62
2021/07/09 09:42:07;;;;;;;5.30;4.90;;;22.60;99.90;;;;;;4958909;29;20817;-62
2021/07/09 09:44:33;;;;;;;5.33;4.93;;;22.70;99.90;;;;;;4958337;29;20530;-62
2021/07/09 09:47:13;;;;;;;5.63;5.17;;;22.90;99.90;;;;;;4958485;29;20414;-62
2021/07/09 09:49:39;;;;;;;5.03;4.63;;;22.70;99.90;;;;;;4958755;29;20170;-62
2021/07/09 09:52:05;;;;;;;5.47;4.97;;;22.80;99.90;;;;;;4942272;29;20413;-62
2021/07/09 09:54:35;;;;;;;5.03;4.53;;;22.70;99.90;;;;;;4939808;29;20648;-62
2021/07/09 09:57:01;;;;;;;5.63;5.13;;;22.70;99.90;;;;;;4958340;29;20182;-62
2021/07/09 09:59:27;;;;;;;4.83;4.40;;;22.60;99.90;;;;;;4958356;28;20946;-61
2021/07/09 10:02:03;;;;;;;6.20;5.70;;;22.50;99.90;;;;;;4958152;29;20197;-62
2021/07/09 10:04:30;;;;;;;9.10;5.00;;;22.70;99.90;;;;;;4958056;29;20409;-62
2021/07/09 10:06:57;;;;;;;5.03;4.60;;;22.80;99.90;;;;;;4958346;29;20459;-62
2021/07/09 10:09:24;;;;;;;4.97;4.50;;;23.10;99.90;;;;;;4957788;28;20425;-62
2021/07/09 10:11:51;;;;;;;4.73;4.27;;;23.00;99.90;;;;;;4957571;29;20421;-62
2021/07/09 10:14:19;;;;;;;7.03;4.83;;;23.10;99.90;;;;;;4958151;29;20412;-62
2021/07/09 10:16:47;;;;;;;5.07;4.67;;;23.10;99.90;;;;;;4958541;29;20491;-62
2021/07/09 10:19:20;;;;;;;5.07;4.67;;;23.40;99.90;;;;;;4957594;28;20461;-62
2021/07/09 10:21:46;;;;;;;5.73;5.13;;;23.50;99.90;;;;;;4958038;29;20446;-62
2021/07/09 10:24:15;;;;;;;5.87;5.30;;;23.20;99.90;;;;;;4957397;29;20859;-61
2021/07/09 10:26:44;;;;;;;5.30;4.80;;;22.80;99.90;;;;;;4957491;29;20240;-62
2021/07/09 10:29:18;;;;;;;5.97;5.33;;;23.10;99.90;;;;;;4958021;28;21013;-62
2021/07/09 10:31:46;;;;;;;5.37;4.87;;;23.30;99.90;;;;;;4956195;29;20957;-62
2021/07/09 10:34:25;;;;;;;8.80;4.97;;;23.50;99.90;;;;;;4958785;29;20762;-62
2021/07/09 10:36:53;;;;;;;5.90;5.27;;;23.70;99.90;;;;;;4957778;29;20397;-62
2021/07/09 10:39:42;;;;;;;5.43;5.03;;;23.30;99.90;;;;;;4957566;28;20433;-62
2021/07/09 10:42:20;;;;;;;7.37;6.00;;;22.80;99.90;;;;;;4957062;28;20468;-62
2021/07/09 10:45:13;;;;;;;9.27;7.37;;;22.70;99.90;;;;;;4957736;29;20386;-62
2021/07/09 10:47:41;;;;;;;7.70;6.90;;;22.70;99.90;;;;;;4957255;28;20962;-61
2021/07/09 10:50:09;;;;;;;8.87;8.07;;;22.90;99.90;;;;;;4955936;29;20556;-61
2021/07/09 10:52:52;;;;;;;8.63;7.87;;;23.50;99.90;;;;;;4955742;29;20775;-63
2021/07/09 10:55:27;;;;;;;9.17;8.37;;;23.50;99.90;;;;;;4930056;29;20807;-62
2021/07/09 10:58:07;;;;;;;9.10;8.20;;;24.10;99.90;;;;;;4941655;29;20441;-62
2021/07/09 11:00:43;;;;;;;8.53;7.83;;;24.50;99.90;;;;;;4957095;29;20749;-62
2021/07/09 11:03:09;;;;;;;8.97;8.03;;;24.30;99.90;;;;;;4957363;29;20401;-62
2021/07/09 11:05:57;;;;;;;10.67;8.60;;;23.90;99.90;;;;;;4957145;29;20496;-62
2021/07/09 11:08:34;;;;;;;10.70;8.53;;;23.80;99.90;;;;;;4957298;28;20190;-62
2021/07/09 11:11:06;;;;;;;9.10;8.30;;;23.80;99.90;;;;;;4957501;29;20416;-62
2021/07/09 11:13:44;;;;;;;8.50;7.80;;;23.50;99.90;;;;;;4956802;29;20460;-62
2021/07/09 11:16:24;;;;;;;8.90;8.10;;;23.40;99.90;;;;;;4957032;29;20437;-62
2021/07/09 11:19:05;;;;;;;8.57;7.67;;;23.50;99.90;;;;;;4956690;28;20449;-62
2021/07/09 11:21:30;;;;;;;8.10;7.40;;;23.50;99.90;;;;;;4957052;29;20483;-62
2021/07/09 11:23:57;;;;;;;8.90;7.23;;;23.80;99.90;;;;;;4957016;29;20786;-63
2021/07/09 11:26:25;;;;;;;8.17;7.47;;;24.00;99.90;;;;;;4956524;28;20174;-62
2021/07/09 11:28:50;;;;;;;8.93;8.10;;;24.30;99.90;;;;;;4956187;28;20481;-62
2021/07/09 11:31:36;;;;;;;9.53;7.40;;;24.50;99.90;;;;;;4956856;29;20413;-62
2021/07/09 11:34:10;;;;;;;9.03;7.60;;;24.40;99.90;;;;;;4957056;29;20189;-62
2021/07/09 11:36:44;;;;;;;8.40;7.07;;;23.80;99.90;;;;;;4956988;29;20481;-62
2021/07/09 11:39:14;;;;;;;8.80;7.10;;;23.70;99.90;;;;;;4956517;28;20915;-62
2021/07/09 11:41:55;;;;;;;7.93;7.23;;;23.50;99.90;;;;;;4956754;29;20446;-62
2021/07/09 11:44:25;;;;;;;7.33;6.63;;;24.00;99.90;;;;;;4947527;29;20485;-62
2021/07/09 11:46:53;;;;;;;8.80;6.90;;;25.10;99.90;;;;;;4936230;29;20407;-63
2021/07/09 11:49:23;;;;;;;9.93;7.87;;;26.60;99.90;;;;;;4937170;29;20502;-63
2021/07/09 11:51:52;;;;;;;8.57;6.97;;;27.40;99.50;;;;;;4937058;29;20410;-64
2021/07/09 11:54:36;;;;;;;7.63;7.00;;;28.70;98.50;;;;;;4936228;29;20445;-63
2021/07/09 11:57:15;;;;;;;8.27;7.57;;;29.20;95.70;;;;;;4936819;29;20403;-63
2021/07/09 11:59:42;;;;;;;8.50;7.70;;;28.80;95.80;;;;;;4936539;29;20438;-64
2021/07/09 12:02:16;;;;;;;9.40;8.50;;;27.60;97.90;;;;;;4936827;29;20458;-62
2021/07/09 12:04:42;;;;;;;11.33;8.63;;;26.40;99.90;;;;;;4937192;29;20403;-62
2021/07/09 12:07:37;;;;;;;8.57;7.87;;;25.00;99.90;;;;;;4936979;29;20419;-63
2021/07/09 12:10:23;;;;;;;9.73;8.77;;;25.10;99.90;;;;;;4936928;29;20406;-63
2021/07/09 12:12:51;;;;;;;10.20;8.07;;;26.30;99.90;;;;;;4936585;29;20434;-62
2021/07/09 12:15:30;;;;;;;9.50;8.70;;;27.60;98.40;;;;;;4937031;29;20473;-62
2021/07/09 12:18:10;;;;;;;9.63;8.70;;;27.00;98.70;;;;;;4936625;29;20450;-63
2021/07/09 12:20:45;;;;;;;9.27;8.40;;;26.30;99.50;;;;;;4936519;29;20501;-62
2021/07/09 12:23:13;;;;;;;8.83;8.10;;;25.20;99.90;;;;;;4936561;29;20402;-62
2021/07/09 12:25:43;;;;;;;9.80;9.00;;;24.90;99.90;;;;;;4935993;29;20482;-62
2021/07/09 12:28:12;;;;;;;8.83;8.03;;;25.30;99.90;;;;;;4943277;29;20521;-62
2021/07/09 12:30:46;;;;;;;9.70;8.80;;;25.80;99.90;;;;;;4955488;29;20521;-62
2021/07/09 12:33:14;;;;;;;8.80;7.87;;;27.20;99.90;;;;;;4955658;28;20386;-62
2021/07/09 12:35:41;;;;;;;8.90;8.10;;;27.50;99.90;;;;;;4955551;29;20402;-62
2021/07/09 12:38:11;;;;;;;8.87;8.10;;;27.30;99.90;;;;;;4955627;28;20476;-62
2021/07/09 12:40:39;;;;;;;7.27;6.57;;;28.80;98.30;;;;;;4955581;29;20422;-62
2021/07/09 12:43:17;;;;;;;9.07;8.03;;;30.10;97.10;;;;;;4954900;29;20500;-62
2021/07/09 12:45:51;;;;;;;6.90;6.23;;;30.40;94.70;;;;;;4955312;29;20394;-62
2021/07/09 12:48:28;;;;;;;6.13;5.63;;;31.40;92.60;;;;;;4955181;28;20930;-62